sensor_id;sensor_type;location;lat;lon;timestamp;P1;durP1;ratioP1;P2;durP2;ratioP2
20611;SDS011;10465;42.686;23.364;2022-07-29T00:01:31;10.00;;;8.77;;
20611;SDS011;10465;42.686;23.364;2022-07-29T00:03:56;11.68;;;9.52;;
20611;SDS011;10465;42.686;23.364;2022-07-29T00:06:21;9.38;;;8.38;;
20611;SDS011;10465;42.686;23.364;2022-07-29T00:08:47;9.88;;;8.25;;
20611;SDS011;10465;42.686;23.364;2022-07-29T00:11:12;10.23;;;9.02;;
20611;SDS011;10465;42.686;23.364;2022-07-29T00:13:38;10.60;;;9.50;;
20611;SDS011;10465;42.686;23.364;2022-07-29T00:16:03;10.77;;;9.07;;
20611;SDS011;10465;42.686;23.364;2022-07-29T00:18:29;9.52;;;8.52;;
20611;SDS011;10465;42.686;23.364;2022-07-29T00:20:54;10.00;;;9.00;;
20611;SDS011;10465;42.686;23.364;2022-07-29T00:23:20;10.30;;;9.20;;
20611;SDS011;10465;42.686;23.364;2022-07-29T00:25:46;14.95;;;9.20;;
20611;SDS011;10465;42.686;23.364;2022-07-29T00:28:11;14.63;;;9.27;;
20611;SDS011;10465;42.686;23.364;2022-07-29T00:30:36;10.93;;;9.75;;
20611;SDS011;10465;42.686;23.364;2022-07-29T00:33:02;9.68;;;8.68;;
20611;SDS011;10465;42.686;23.364;2022-07-29T00:35:27;10.82;;;9.02;;
20611;SDS011;10465;42.686;23.364;2022-07-29T00:38:08;11.73;;;9.82;;
20611;SDS011;10465;42.686;23.364;2022-07-29T00:40:34;11.35;;;9.15;;
20611;SDS011;10465;42.686;23.364;2022-07-29T00:43:00;10.63;;;9.15;;
20611;SDS011;10465;42.686;23.364;2022-07-29T00:45:26;13.82;;;9.85;;
20611;SDS011;10465;42.686;23.364;2022-07-29T00:47:52;12.07;;;9.88;;
20611;SDS011;10465;42.686;23.364;2022-07-29T00:50:17;11.65;;;9.30;;
20611;SDS011;10465;42.686;23.364;2022-07-29T00:52:43;12.07;;;9.77;;
20611;SDS011;10465;42.686;23.364;2022-07-29T00:55:10;11.30;;;8.88;;
20611;SDS011;10465;42.686;23.364;2022-07-29T00:57:37;10.40;;;8.93;;
20611;SDS011;10465;42.686;23.364;2022-07-29T01:00:04;10.57;;;9.25;;
20611;SDS011;10465;42.686;23.364;2022-07-29T01:02:32;11.50;;;10.15;;
20611;SDS011;10465;42.686;23.364;2022-07-29T01:04:57;12.00;;;10.02;;
20611;SDS011;10465;42.686;23.364;2022-07-29T01:07:23;12.88;;;9.75;;
20611;SDS011;10465;42.686;23.364;2022-07-29T01:09:50;11.38;;;9.38;;
20611;SDS011;10465;42.686;23.364;2022-07-29T01:12:18;10.95;;;9.75;;
20611;SDS011;10465;42.686;23.364;2022-07-29T01:14:46;14.70;;;12.00;;
20611;SDS011;10465;42.686;23.364;2022-07-29T01:17:17;14.27;;;11.70;;
20611;SDS011;10465;42.686;23.364;2022-07-29T01:20:02;15.85;;;13.40;;
20611;SDS011;10465;42.686;23.364;2022-07-29T01:28:17;15.95;;;13.48;;
20611;SDS011;10465;42.686;23.364;2022-07-29T01:30:13;17.25;;;13.70;;
20611;SDS011;10465;42.686;23.364;2022-07-29T01:32:39;17.00;;;13.55;;
20611;SDS011;10465;42.686;23.364;2022-07-29T01:35:10;15.23;;;12.00;;
20611;SDS011;10465;42.686;23.364;2022-07-29T01:37:52;16.58;;;12.98;;
20611;SDS011;10465;42.686;23.364;2022-07-29T01:43:15;15.45;;;12.65;;
20611;SDS011;10465;42.686;23.364;2022-07-29T01:45:45;15.07;;;12.73;;
20611;SDS011;10465;42.686;23.364;2022-07-29T01:48:21;17.95;;;13.98;;
20611;SDS011;10465;42.686;23.364;2022-07-29T01:50:50;16.40;;;13.38;;
20611;SDS011;10465;42.686;23.364;2022-07-29T01:53:26;16.40;;;13.40;;
20611;SDS011;10465;42.686;23.364;2022-07-29T01:55:57;16.17;;;13.10;;
20611;SDS011;10465;42.686;23.364;2022-07-29T01:58:25;15.95;;;14.25;;
20611;SDS011;10465;42.686;23.364;2022-07-29T02:00:53;19.90;;;13.93;;
20611;SDS011;10465;42.686;23.364;2022-07-29T02:03:22;16.02;;;13.73;;
20611;SDS011;10465;42.686;23.364;2022-07-29T02:05:48;16.33;;;13.75;;
20611;SDS011;10465;42.686;23.364;2022-07-29T02:08:16;17.67;;;13.88;;
20611;SDS011;10465;42.686;23.364;2022-07-29T02:10:45;17.50;;;13.98;;
20611;SDS011;10465;42.686;23.364;2022-07-29T02:13:12;16.42;;;13.80;;
20611;SDS011;10465;42.686;23.364;2022-07-29T02:15:39;16.05;;;13.77;;
20611;SDS011;10465;42.686;23.364;2022-07-29T02:18:07;18.40;;;13.30;;
20611;SDS011;10465;42.686;23.364;2022-07-29T02:20:36;18.05;;;14.07;;
20611;SDS011;10465;42.686;23.364;2022-07-29T02:23:03;18.50;;;14.43;;
20611;SDS011;10465;42.686;23.364;2022-07-29T02:25:29;15.38;;;12.95;;
20611;SDS011;10465;42.686;23.364;2022-07-29T02:27:56;15.00;;;13.25;;
20611;SDS011;10465;42.686;23.364;2022-07-29T02:30:25;17.00;;;12.77;;
20611;SDS011;10465;42.686;23.364;2022-07-29T02:32:53;16.55;;;12.98;;
20611;SDS011;10465;42.686;23.364;2022-07-29T02:35:21;16.85;;;13.73;;
20611;SDS011;10465;42.686;23.364;2022-07-29T02:37:47;16.38;;;13.27;;
20611;SDS011;10465;42.686;23.364;2022-07-29T02:40:34;18.05;;;13.05;;
20611;SDS011;10465;42.686;23.364;2022-07-29T02:43:02;19.38;;;13.20;;
20611;SDS011;10465;42.686;23.364;2022-07-29T02:45:31;19.10;;;13.40;;
20611;SDS011;10465;42.686;23.364;2022-07-29T02:47:57;16.60;;;14.00;;
20611;SDS011;10465;42.686;23.364;2022-07-29T02:50:32;15.85;;;12.70;;
20611;SDS011;10465;42.686;23.364;2022-07-29T02:53:02;16.15;;;13.23;;
20611;SDS011;10465;42.686;23.364;2022-07-29T02:55:37;14.65;;;12.48;;
20611;SDS011;10465;42.686;23.364;2022-07-29T03:00:38;14.48;;;11.85;;
20611;SDS011;10465;42.686;23.364;2022-07-29T03:03:10;15.25;;;12.45;;
20611;SDS011;10465;42.686;23.364;2022-07-29T03:05:37;14.88;;;11.35;;
20611;SDS011;10465;42.686;23.364;2022-07-29T03:08:04;12.35;;;10.80;;
20611;SDS011;10465;42.686;23.364;2022-07-29T03:10:32;14.13;;;11.88;;
20611;SDS011;10465;42.686;23.364;2022-07-29T03:12:58;14.23;;;11.57;;
20611;SDS011;10465;42.686;23.364;2022-07-29T03:15:26;13.00;;;11.60;;
20611;SDS011;10465;42.686;23.364;2022-07-29T03:17:52;14.38;;;12.15;;
20611;SDS011;10465;42.686;23.364;2022-07-29T03:20:18;15.77;;;12.20;;
20611;SDS011;10465;42.686;23.364;2022-07-29T03:22:44;18.00;;;12.93;;
20611;SDS011;10465;42.686;23.364;2022-07-29T03:25:12;14.45;;;11.65;;
20611;SDS011;10465;42.686;23.364;2022-07-29T03:27:39;13.65;;;12.18;;
20611;SDS011;10465;42.686;23.364;2022-07-29T03:30:05;15.45;;;11.43;;
20611;SDS011;10465;42.686;23.364;2022-07-29T03:32:32;16.13;;;11.82;;
20611;SDS011;10465;42.686;23.364;2022-07-29T03:34:59;14.40;;;12.32;;
20611;SDS011;10465;42.686;23.364;2022-07-29T03:37:25;14.77;;;11.80;;
20611;SDS011;10465;42.686;23.364;2022-07-29T03:39:51;14.07;;;12.10;;
20611;SDS011;10465;42.686;23.364;2022-07-29T03:42:20;15.57;;;12.30;;
20611;SDS011;10465;42.686;23.364;2022-07-29T03:44:50;12.93;;;11.63;;
20611;SDS011;10465;42.686;23.364;2022-07-29T03:47:18;13.15;;;11.75;;
20611;SDS011;10465;42.686;23.364;2022-07-29T03:49:48;13.20;;;10.95;;
20611;SDS011;10465;42.686;23.364;2022-07-29T03:52:17;14.98;;;11.88;;
20611;SDS011;10465;42.686;23.364;2022-07-29T03:54:43;12.43;;;10.80;;
20611;SDS011;10465;42.686;23.364;2022-07-29T03:57:10;13.70;;;10.77;;
20611;SDS011;10465;42.686;23.364;2022-07-29T03:59:37;12.32;;;10.23;;
20611;SDS011;10465;42.686;23.364;2022-07-29T04:02:04;14.07;;;10.77;;
20611;SDS011;10465;42.686;23.364;2022-07-29T04:04:33;11.93;;;10.63;;
20611;SDS011;10465;42.686;23.364;2022-07-29T04:06:59;15.15;;;10.98;;
20611;SDS011;10465;42.686;23.364;2022-07-29T04:09:25;12.40;;;10.18;;
20611;SDS011;10465;42.686;23.364;2022-07-29T04:11:51;15.38;;;11.05;;
20611;SDS011;10465;42.686;23.364;2022-07-29T04:14:17;15.32;;;11.75;;
20611;SDS011;10465;42.686;23.364;2022-07-29T04:16:43;16.85;;;11.75;;
20611;SDS011;10465;42.686;23.364;2022-07-29T04:19:08;18.40;;;12.07;;
20611;SDS011;10465;42.686;23.364;2022-07-29T04:21:40;13.70;;;10.88;;
20611;SDS011;10465;42.686;23.364;2022-07-29T04:24:06;16.60;;;11.55;;
20611;SDS011;10465;42.686;23.364;2022-07-29T04:26:33;12.02;;;10.75;;
20611;SDS011;10465;42.686;23.364;2022-07-29T04:28:59;15.27;;;11.10;;
20611;SDS011;10465;42.686;23.364;2022-07-29T04:31:24;14.57;;;11.23;;
20611;SDS011;10465;42.686;23.364;2022-07-29T04:33:49;10.93;;;9.75;;
20611;SDS011;10465;42.686;23.364;2022-07-29T04:36:15;13.25;;;10.32;;
20611;SDS011;10465;42.686;23.364;2022-07-29T04:38:41;10.50;;;8.82;;
20611;SDS011;10465;42.686;23.364;2022-07-29T04:41:07;12.93;;;9.13;;
20611;SDS011;10465;42.686;23.364;2022-07-29T04:43:33;9.18;;;8.07;;
20611;SDS011;10465;42.686;23.364;2022-07-29T04:45:59;11.10;;;9.10;;
20611;SDS011;10465;42.686;23.364;2022-07-29T04:48:25;13.07;;;10.10;;
20611;SDS011;10465;42.686;23.364;2022-07-29T04:50:51;9.88;;;8.80;;
20611;SDS011;10465;42.686;23.364;2022-07-29T04:53:17;10.68;;;9.15;;
20611;SDS011;10465;42.686;23.364;2022-07-29T04:55:43;13.27;;;10.45;;
20611;SDS011;10465;42.686;23.364;2022-07-29T04:58:09;11.80;;;9.20;;
20611;SDS011;10465;42.686;23.364;2022-07-29T05:00:35;13.43;;;9.05;;
20611;SDS011;10465;42.686;23.364;2022-07-29T05:03:01;9.88;;;8.73;;
20611;SDS011;10465;42.686;23.364;2022-07-29T05:05:26;9.48;;;8.45;;
20611;SDS011;10465;42.686;23.364;2022-07-29T05:07:51;11.85;;;8.85;;
20611;SDS011;10465;42.686;23.364;2022-07-29T05:10:17;13.55;;;8.88;;
20611;SDS011;10465;42.686;23.364;2022-07-29T05:12:42;13.02;;;8.88;;
20611;SDS011;10465;42.686;23.364;2022-07-29T05:15:08;9.82;;;8.57;;
20611;SDS011;10465;42.686;23.364;2022-07-29T05:17:34;11.05;;;8.63;;
20611;SDS011;10465;42.686;23.364;2022-07-29T05:19:59;10.98;;;8.25;;
20611;SDS011;10465;42.686;23.364;2022-07-29T05:22:25;14.63;;;9.25;;
20611;SDS011;10465;42.686;23.364;2022-07-29T05:24:50;11.90;;;8.20;;
20611;SDS011;10465;42.686;23.364;2022-07-29T05:27:16;12.52;;;8.43;;
20611;SDS011;10465;42.686;23.364;2022-07-29T05:29:41;11.10;;;7.75;;
20611;SDS011;10465;42.686;23.364;2022-07-29T05:32:07;9.13;;;7.88;;
20611;SDS011;10465;42.686;23.364;2022-07-29T05:34:32;9.68;;;7.50;;
20611;SDS011;10465;42.686;23.364;2022-07-29T05:36:58;12.05;;;7.93;;
20611;SDS011;10465;42.686;23.364;2022-07-29T05:39:23;11.07;;;6.95;;
20611;SDS011;10465;42.686;23.364;2022-07-29T05:41:49;8.48;;;6.85;;
20611;SDS011;10465;42.686;23.364;2022-07-29T05:44:15;7.50;;;6.72;;
20611;SDS011;10465;42.686;23.364;2022-07-29T05:46:41;9.02;;;6.70;;
20611;SDS011;10465;42.686;23.364;2022-07-29T05:49:06;9.18;;;6.57;;
20611;SDS011;10465;42.686;23.364;2022-07-29T05:51:35;8.88;;;7.38;;
20611;SDS011;10465;42.686;23.364;2022-07-29T05:54:01;11.05;;;7.47;;
20611;SDS011;10465;42.686;23.364;2022-07-29T05:56:27;12.38;;;8.07;;
20611;SDS011;10465;42.686;23.364;2022-07-29T05:58:52;11.95;;;9.55;;
20611;SDS011;10465;42.686;23.364;2022-07-29T06:01:18;8.95;;;8.00;;
20611;SDS011;10465;42.686;23.364;2022-07-29T06:03:43;10.73;;;8.23;;
20611;SDS011;10465;42.686;23.364;2022-07-29T06:06:09;11.43;;;9.65;;
20611;SDS011;10465;42.686;23.364;2022-07-29T06:08:35;9.30;;;8.32;;
20611;SDS011;10465;42.686;23.364;2022-07-29T06:11:01;9.73;;;7.22;;
20611;SDS011;10465;42.686;23.364;2022-07-29T06:13:27;8.10;;;7.07;;
20611;SDS011;10465;42.686;23.364;2022-07-29T06:15:53;11.30;;;7.20;;
20611;SDS011;10465;42.686;23.364;2022-07-29T06:18:18;8.88;;;7.47;;
20611;SDS011;10465;42.686;23.364;2022-07-29T06:20:45;9.65;;;6.85;;
20611;SDS011;10465;42.686;23.364;2022-07-29T06:23:11;8.70;;;6.35;;
20611;SDS011;10465;42.686;23.364;2022-07-29T06:25:37;9.23;;;6.68;;
20611;SDS011;10465;42.686;23.364;2022-07-29T06:28:05;12.55;;;7.03;;
20611;SDS011;10465;42.686;23.364;2022-07-29T06:30:30;10.82;;;8.65;;
20611;SDS011;10465;42.686;23.364;2022-07-29T06:32:55;9.70;;;8.20;;
20611;SDS011;10465;42.686;23.364;2022-07-29T06:35:21;8.43;;;7.35;;
20611;SDS011;10465;42.686;23.364;2022-07-29T06:37:46;7.35;;;6.65;;
20611;SDS011;10465;42.686;23.364;2022-07-29T06:40:12;10.80;;;8.27;;
20611;SDS011;10465;42.686;23.364;2022-07-29T06:42:56;11.85;;;9.15;;
20611;SDS011;10465;42.686;23.364;2022-07-29T06:45:22;10.80;;;8.45;;
20611;SDS011;10465;42.686;23.364;2022-07-29T06:47:47;8.88;;;6.82;;
20611;SDS011;10465;42.686;23.364;2022-07-29T06:50:14;12.25;;;8.15;;
20611;SDS011;10465;42.686;23.364;2022-07-29T06:52:40;7.85;;;6.90;;
20611;SDS011;10465;42.686;23.364;2022-07-29T06:55:08;9.07;;;6.80;;
20611;SDS011;10465;42.686;23.364;2022-07-29T06:57:34;8.05;;;6.22;;
20611;SDS011;10465;42.686;23.364;2022-07-29T06:59:59;6.10;;;5.47;;
20611;SDS011;10465;42.686;23.364;2022-07-29T07:02:25;7.97;;;6.00;;
20611;SDS011;10465;42.686;23.364;2022-07-29T07:04:51;6.32;;;5.72;;
20611;SDS011;10465;42.686;23.364;2022-07-29T07:07:17;6.57;;;5.82;;
20611;SDS011;10465;42.686;23.364;2022-07-29T07:09:42;7.47;;;5.57;;
20611;SDS011;10465;42.686;23.364;2022-07-29T07:12:08;5.63;;;5.00;;
20611;SDS011;10465;42.686;23.364;2022-07-29T07:14:33;8.05;;;5.32;;
20611;SDS011;10465;42.686;23.364;2022-07-29T07:16:59;6.03;;;5.35;;
20611;SDS011;10465;42.686;23.364;2022-07-29T07:19:25;6.50;;;5.30;;
20611;SDS011;10465;42.686;23.364;2022-07-29T07:21:54;7.18;;;4.95;;
20611;SDS011;10465;42.686;23.364;2022-07-29T07:24:20;5.72;;;5.10;;
20611;SDS011;10465;42.686;23.364;2022-07-29T07:26:45;6.05;;;5.25;;
20611;SDS011;10465;42.686;23.364;2022-07-29T07:29:11;6.47;;;5.05;;
20611;SDS011;10465;42.686;23.364;2022-07-29T07:31:36;5.70;;;5.20;;
20611;SDS011;10465;42.686;23.364;2022-07-29T07:34:02;6.90;;;4.50;;
20611;SDS011;10465;42.686;23.364;2022-07-29T07:36:28;5.95;;;5.03;;
20611;SDS011;10465;42.686;23.364;2022-07-29T07:38:53;7.93;;;5.63;;
20611;SDS011;10465;42.686;23.364;2022-07-29T07:41:19;6.18;;;5.28;;
20611;SDS011;10465;42.686;23.364;2022-07-29T07:43:45;5.78;;;5.20;;
20611;SDS011;10465;42.686;23.364;2022-07-29T07:46:10;8.05;;;4.93;;
20611;SDS011;10465;42.686;23.364;2022-07-29T07:48:36;6.20;;;4.65;;
20611;SDS011;10465;42.686;23.364;2022-07-29T07:51:02;8.77;;;7.90;;
20611;SDS011;10465;42.686;23.364;2022-07-29T07:53:27;7.85;;;5.50;;
20611;SDS011;10465;42.686;23.364;2022-07-29T07:55:54;6.50;;;5.47;;
20611;SDS011;10465;42.686;23.364;2022-07-29T07:58:20;6.15;;;4.70;;
20611;SDS011;10465;42.686;23.364;2022-07-29T08:00:46;7.30;;;4.80;;
20611;SDS011;10465;42.686;23.364;2022-07-29T08:03:12;4.90;;;4.50;;
20611;SDS011;10465;42.686;23.364;2022-07-29T08:05:38;7.57;;;4.82;;
20611;SDS011;10465;42.686;23.364;2022-07-29T08:08:04;5.20;;;4.60;;
20611;SDS011;10465;42.686;23.364;2022-07-29T08:10:33;4.80;;;4.38;;
20611;SDS011;10465;42.686;23.364;2022-07-29T08:13:17;5.63;;;4.70;;
20611;SDS011;10465;42.686;23.364;2022-07-29T08:15:43;7.22;;;4.53;;
20611;SDS011;10465;42.686;23.364;2022-07-29T08:18:10;6.95;;;5.07;;
20611;SDS011;10465;42.686;23.364;2022-07-29T08:20:39;4.22;;;3.83;;
20611;SDS011;10465;42.686;23.364;2022-07-29T08:23:06;5.07;;;3.92;;
20611;SDS011;10465;42.686;23.364;2022-07-29T08:25:36;5.20;;;4.10;;
20611;SDS011;10465;42.686;23.364;2022-07-29T08:28:03;5.07;;;4.38;;
20611;SDS011;10465;42.686;23.364;2022-07-29T08:30:28;5.50;;;4.15;;
20611;SDS011;10465;42.686;23.364;2022-07-29T08:32:54;5.15;;;4.63;;
20611;SDS011;10465;42.686;23.364;2022-07-29T08:35:20;5.47;;;4.05;;
20611;SDS011;10465;42.686;23.364;2022-07-29T08:37:46;4.65;;;4.20;;
20611;SDS011;10465;42.686;23.364;2022-07-29T08:40:12;5.20;;;4.00;;
20611;SDS011;10465;42.686;23.364;2022-07-29T08:42:39;6.40;;;4.10;;
20611;SDS011;10465;42.686;23.364;2022-07-29T08:45:04;5.82;;;4.40;;
20611;SDS011;10465;42.686;23.364;2022-07-29T08:47:30;6.25;;;4.28;;
20611;SDS011;10465;42.686;23.364;2022-07-29T08:49:56;5.05;;;4.55;;
20611;SDS011;10465;42.686;23.364;2022-07-29T08:52:21;4.18;;;3.78;;
20611;SDS011;10465;42.686;23.364;2022-07-29T08:54:50;5.85;;;4.40;;
20611;SDS011;10465;42.686;23.364;2022-07-29T08:57:18;5.50;;;3.95;;
20611;SDS011;10465;42.686;23.364;2022-07-29T08:59:46;4.78;;;4.10;;
20611;SDS011;10465;42.686;23.364;2022-07-29T09:02:19;8.25;;;4.60;;
20611;SDS011;10465;42.686;23.364;2022-07-29T09:04:45;6.63;;;3.85;;
20611;SDS011;10465;42.686;23.364;2022-07-29T09:07:14;4.68;;;3.70;;
20611;SDS011;10465;42.686;23.364;2022-07-29T09:09:43;4.70;;;4.30;;
20611;SDS011;10465;42.686;23.364;2022-07-29T09:12:09;4.85;;;4.35;;
20611;SDS011;10465;42.686;23.364;2022-07-29T09:14:37;4.47;;;4.07;;
20611;SDS011;10465;42.686;23.364;2022-07-29T09:17:05;6.15;;;4.25;;
20611;SDS011;10465;42.686;23.364;2022-07-29T09:19:33;7.80;;;5.50;;
20611;SDS011;10465;42.686;23.364;2022-07-29T09:22:00;5.40;;;3.67;;
20611;SDS011;10465;42.686;23.364;2022-07-29T09:26:59;5.47;;;4.47;;
20611;SDS011;10465;42.686;23.364;2022-07-29T09:29:25;5.38;;;4.47;;
20611;SDS011;10465;42.686;23.364;2022-07-29T09:31:52;7.63;;;4.45;;
20611;SDS011;10465;42.686;23.364;2022-07-29T09:34:26;5.13;;;4.60;;
20611;SDS011;10465;42.686;23.364;2022-07-29T09:36:56;4.93;;;4.53;;
20611;SDS011;10465;42.686;23.364;2022-07-29T09:42:01;4.70;;;4.25;;
20611;SDS011;10465;42.686;23.364;2022-07-29T09:44:42;8.93;;;5.13;;
20611;SDS011;10465;42.686;23.364;2022-07-29T09:47:13;5.03;;;4.53;;
20611;SDS011;10465;42.686;23.364;2022-07-29T09:49:58;7.85;;;5.63;;
20611;SDS011;10465;42.686;23.364;2022-07-29T09:52:25;5.32;;;4.55;;
20611;SDS011;10465;42.686;23.364;2022-07-29T09:55:07;3.92;;;3.63;;
20611;SDS011;10465;42.686;23.364;2022-07-29T09:57:34;4.88;;;4.28;;
20611;SDS011;10465;42.686;23.364;2022-07-29T10:02:34;4.88;;;4.10;;
20611;SDS011;10465;42.686;23.364;2022-07-29T10:05:01;4.47;;;4.07;;
20611;SDS011;10465;42.686;23.364;2022-07-29T10:07:44;4.50;;;4.00;;
20611;SDS011;10465;42.686;23.364;2022-07-29T10:10:10;4.25;;;3.33;;
20611;SDS011;10465;42.686;23.364;2022-07-29T10:12:47;4.00;;;3.70;;
20611;SDS011;10465;42.686;23.364;2022-07-29T10:15:27;3.83;;;3.50;;
20611;SDS011;10465;42.686;23.364;2022-07-29T10:17:57;5.25;;;3.50;;
20611;SDS011;10465;42.686;23.364;2022-07-29T10:20:23;5.35;;;3.17;;
20611;SDS011;10465;42.686;23.364;2022-07-29T10:22:50;3.50;;;3.15;;
20611;SDS011;10465;42.686;23.364;2022-07-29T10:25:16;4.72;;;4.22;;
20611;SDS011;10465;42.686;23.364;2022-07-29T10:27:43;4.25;;;3.90;;
20611;SDS011;10465;42.686;23.364;2022-07-29T10:30:13;4.43;;;3.80;;
20611;SDS011;10465;42.686;23.364;2022-07-29T10:35:18;3.63;;;2.88;;
20611;SDS011;10465;42.686;23.364;2022-07-29T10:38:05;4.40;;;4.00;;
20611;SDS011;10465;42.686;23.364;2022-07-29T10:44:06;4.20;;;3.80;;
20611;SDS011;10465;42.686;23.364;2022-07-29T10:46:37;4.90;;;4.13;;
20611;SDS011;10465;42.686;23.364;2022-07-29T10:49:08;8.63;;;4.32;;
20611;SDS011;10465;42.686;23.364;2022-07-29T10:51:54;5.45;;;3.60;;
20611;SDS011;10465;42.686;23.364;2022-07-29T11:00:25;5.13;;;4.05;;
20611;SDS011;10465;42.686;23.364;2022-07-29T11:07:34;4.07;;;3.72;;
20611;SDS011;10465;42.686;23.364;2022-07-29T11:15:14;6.68;;;3.80;;
20611;SDS011;10465;42.686;23.364;2022-07-29T11:31:32;4.60;;;4.10;;
20611;SDS011;10465;42.686;23.364;2022-07-29T11:39:32;5.00;;;4.57;;
20611;SDS011;10465;42.686;23.364;2022-07-29T11:48:05;6.45;;;4.90;;
20611;SDS011;10465;42.686;23.364;2022-07-29T11:52:58;5.25;;;4.63;;
20611;SDS011;10465;42.686;23.364;2022-07-29T11:55:25;5.22;;;4.05;;
20611;SDS011;10465;42.686;23.364;2022-07-29T11:57:58;5.78;;;4.65;;
20611;SDS011;10465;42.686;23.364;2022-07-29T12:02:53;4.97;;;4.25;;
20611;SDS011;10465;42.686;23.364;2022-07-29T12:05:20;6.45;;;4.75;;
20611;SDS011;10465;42.686;23.364;2022-07-29T12:07:46;4.78;;;4.20;;
20611;SDS011;10465;42.686;23.364;2022-07-29T12:10:12;5.30;;;4.50;;
20611;SDS011;10465;42.686;23.364;2022-07-29T12:12:38;9.38;;;5.68;;
20611;SDS011;10465;42.686;23.364;2022-07-29T12:15:17;5.45;;;4.53;;
20611;SDS011;10465;42.686;23.364;2022-07-29T12:17:45;5.90;;;4.30;;
20611;SDS011;10465;42.686;23.364;2022-07-29T12:20:12;5.60;;;5.10;;
20611;SDS011;10465;42.686;23.364;2022-07-29T12:22:42;6.68;;;5.78;;
20611;SDS011;10465;42.686;23.364;2022-07-29T12:27:36;5.55;;;5.05;;
20611;SDS011;10465;42.686;23.364;2022-07-29T12:30:13;5.25;;;4.47;;
20611;SDS011;10465;42.686;23.364;2022-07-29T12:32:44;5.10;;;4.50;;
20611;SDS011;10465;42.686;23.364;2022-07-29T12:35:12;6.93;;;4.90;;
20611;SDS011;10465;42.686;23.364;2022-07-29T12:37:40;5.90;;;5.40;;
20611;SDS011;10465;42.686;23.364;2022-07-29T12:40:08;6.35;;;4.88;;
20611;SDS011;10465;42.686;23.364;2022-07-29T12:42:35;5.57;;;5.07;;
20611;SDS011;10465;42.686;23.364;2022-07-29T12:45:02;5.85;;;5.18;;
20611;SDS011;10465;42.686;23.364;2022-07-29T12:47:29;7.10;;;5.03;;
20611;SDS011;10465;42.686;23.364;2022-07-29T12:50:13;6.07;;;5.03;;
20611;SDS011;10465;42.686;23.364;2022-07-29T12:52:43;6.35;;;5.35;;
20611;SDS011;10465;42.686;23.364;2022-07-29T12:55:10;5.80;;;5.20;;
20611;SDS011;10465;42.686;23.364;2022-07-29T12:57:45;5.70;;;5.13;;
20611;SDS011;10465;42.686;23.364;2022-07-29T13:00:13;5.43;;;4.93;;
20611;SDS011;10465;42.686;23.364;2022-07-29T13:02:40;6.15;;;5.13;;
20611;SDS011;10465;42.686;23.364;2022-07-29T13:05:07;6.95;;;5.63;;
20611;SDS011;10465;42.686;23.364;2022-07-29T13:07:34;5.43;;;4.93;;
20611;SDS011;10465;42.686;23.364;2022-07-29T13:12:39;6.07;;;5.47;;
20611;SDS011;10465;42.686;23.364;2022-07-29T13:15:24;7.20;;;5.60;;
20611;SDS011;10465;42.686;23.364;2022-07-29T13:17:50;5.85;;;5.10;;
20611;SDS011;10465;42.686;23.364;2022-07-29T13:20:15;7.72;;;5.53;;
20611;SDS011;10465;42.686;23.364;2022-07-29T13:22:41;5.95;;;5.35;;
20611;SDS011;10465;42.686;23.364;2022-07-29T13:25:08;5.65;;;5.15;;
20611;SDS011;10465;42.686;23.364;2022-07-29T13:27:35;6.10;;;5.50;;
20611;SDS011;10465;42.686;23.364;2022-07-29T13:30:06;5.78;;;5.25;;
20611;SDS011;10465;42.686;23.364;2022-07-29T13:32:33;7.43;;;5.30;;
20611;SDS011;10465;42.686;23.364;2022-07-29T13:35:05;5.47;;;4.80;;
20611;SDS011;10465;42.686;23.364;2022-07-29T13:37:32;5.93;;;4.85;;
20611;SDS011;10465;42.686;23.364;2022-07-29T13:39:59;5.45;;;5.00;;
20611;SDS011;10465;42.686;23.364;2022-07-29T13:42:27;5.88;;;5.22;;
20611;SDS011;10465;42.686;23.364;2022-07-29T13:44:53;7.85;;;5.85;;
20611;SDS011;10465;42.686;23.364;2022-07-29T13:47:19;6.10;;;5.50;;
20611;SDS011;10465;42.686;23.364;2022-07-29T13:49:45;5.50;;;5.10;;
20611;SDS011;10465;42.686;23.364;2022-07-29T13:52:10;5.95;;;5.00;;
20611;SDS011;10465;42.686;23.364;2022-07-29T13:54:36;5.53;;;5.03;;
20611;SDS011;10465;42.686;23.364;2022-07-29T13:57:03;5.60;;;5.10;;
20611;SDS011;10465;42.686;23.364;2022-07-29T13:59:29;6.07;;;5.22;;
20611;SDS011;10465;42.686;23.364;2022-07-29T14:01:55;5.75;;;5.25;;
20611;SDS011;10465;42.686;23.364;2022-07-29T14:04:20;5.65;;;5.15;;
20611;SDS011;10465;42.686;23.364;2022-07-29T14:06:48;5.43;;;4.93;;
20611;SDS011;10465;42.686;23.364;2022-07-29T14:09:13;6.78;;;6.07;;
20611;SDS011;10465;42.686;23.364;2022-07-29T14:11:39;5.85;;;5.07;;
20611;SDS011;10465;42.686;23.364;2022-07-29T14:14:04;8.73;;;5.20;;
20611;SDS011;10465;42.686;23.364;2022-07-29T14:16:30;5.85;;;5.30;;
20611;SDS011;10465;42.686;23.364;2022-07-29T14:18:55;6.60;;;5.68;;
20611;SDS011;10465;42.686;23.364;2022-07-29T14:21:21;5.75;;;5.25;;
20611;SDS011;10465;42.686;23.364;2022-07-29T14:23:46;5.32;;;4.82;;
20611;SDS011;10465;42.686;23.364;2022-07-29T14:26:12;7.47;;;5.78;;
20611;SDS011;10465;42.686;23.364;2022-07-29T14:28:38;7.22;;;5.28;;
20611;SDS011;10465;42.686;23.364;2022-07-29T14:31:08;8.07;;;5.50;;
20611;SDS011;10465;42.686;23.364;2022-07-29T14:33:34;5.68;;;4.95;;
20611;SDS011;10465;42.686;23.364;2022-07-29T14:35:59;5.63;;;5.10;;
20611;SDS011;10465;42.686;23.364;2022-07-29T14:38:25;5.97;;;5.38;;
20611;SDS011;10465;42.686;23.364;2022-07-29T14:40:50;7.70;;;6.32;;
20611;SDS011;10465;42.686;23.364;2022-07-29T14:43:16;6.15;;;5.55;;
20611;SDS011;10465;42.686;23.364;2022-07-29T14:45:41;5.97;;;5.38;;
20611;SDS011;10465;42.686;23.364;2022-07-29T14:48:06;5.90;;;5.40;;
20611;SDS011;10465;42.686;23.364;2022-07-29T14:50:32;6.10;;;5.50;;
20611;SDS011;10465;42.686;23.364;2022-07-29T14:52:58;6.22;;;5.63;;
20611;SDS011;10465;42.686;23.364;2022-07-29T14:55:25;6.68;;;5.57;;
20611;SDS011;10465;42.686;23.364;2022-07-29T14:57:51;6.53;;;5.93;;
20611;SDS011;10465;42.686;23.364;2022-07-29T15:00:16;6.15;;;5.53;;
20611;SDS011;10465;42.686;23.364;2022-07-29T15:02:42;9.38;;;6.18;;
20611;SDS011;10465;42.686;23.364;2022-07-29T15:05:08;7.15;;;5.40;;
20611;SDS011;10465;42.686;23.364;2022-07-29T15:07:33;6.07;;;5.47;;
20611;SDS011;10465;42.686;23.364;2022-07-29T15:09:59;6.18;;;5.57;;
20611;SDS011;10465;42.686;23.364;2022-07-29T15:12:24;6.82;;;5.80;;
20611;SDS011;10465;42.686;23.364;2022-07-29T15:14:50;6.07;;;5.35;;
20611;SDS011;10465;42.686;23.364;2022-07-29T15:17:15;6.30;;;5.63;;
20611;SDS011;10465;42.686;23.364;2022-07-29T15:19:41;6.07;;;5.43;;
20611;SDS011;10465;42.686;23.364;2022-07-29T15:22:06;6.55;;;5.95;;
20611;SDS011;10465;42.686;23.364;2022-07-29T15:24:32;7.55;;;5.38;;
20611;SDS011;10465;42.686;23.364;2022-07-29T15:26:57;6.80;;;6.05;;
20611;SDS011;10465;42.686;23.364;2022-07-29T15:29:23;6.32;;;5.68;;
20611;SDS011;10465;42.686;23.364;2022-07-29T15:31:48;6.10;;;5.50;;
20611;SDS011;10465;42.686;23.364;2022-07-29T15:34:14;6.47;;;5.88;;
20611;SDS011;10465;42.686;23.364;2022-07-29T15:36:40;6.57;;;5.32;;
20611;SDS011;10465;42.686;23.364;2022-07-29T15:39:05;6.25;;;5.65;;
20611;SDS011;10465;42.686;23.364;2022-07-29T15:41:31;7.53;;;5.72;;
20611;SDS011;10465;42.686;23.364;2022-07-29T15:43:57;6.25;;;5.28;;